sensor_id;sensor_type;location;lat;lon;timestamp;temperature;humidity
7030;DHT22;3556;53.500;10.176;2023-04-03T00:01:12;-0.50;99.90
7030;DHT22;3556;53.500;10.176;2023-04-03T00:03:38;-0.50;99.90
7030;DHT22;3556;53.500;10.176;2023-04-03T00:06:04;-0.50;99.90
7030;DHT22;3556;53.500;10.176;2023-04-03T00:08:32;-0.60;99.90
7030;DHT22;3556;53.500;10.176;2023-04-03T00:10:58;-0.60;99.90
7030;DHT22;3556;53.500;10.176;2023-04-03T00:13:24;-0.60;99.90
7030;DHT22;3556;53.500;10.176;2023-04-03T00:15:51;-0.50;99.90
7030;DHT22;3556;53.500;10.176;2023-04-03T00:18:17;-0.50;99.90
7030;DHT22;3556;53.500;10.176;2023-04-03T00:20:43;-0.60;99.90
7030;DHT22;3556;53.500;10.176;2023-04-03T00:23:08;-0.60;99.90
7030;DHT22;3556;53.500;10.176;2023-04-03T00:25:34;-0.60;99.90
7030;DHT22;3556;53.500;10.176;2023-04-03T00:28:00;-0.60;99.90
7030;DHT22;3556;53.500;10.176;2023-04-03T00:30:26;-0.60;99.90
7030;DHT22;3556;53.500;10.176;2023-04-03T00:32:52;-0.60;99.90
7030;DHT22;3556;53.500;10.176;2023-04-03T00:35:20;-0.60;99.90
7030;DHT22;3556;53.500;10.176;2023-04-03T00:37:46;-0.60;99.90
7030;DHT22;3556;53.500;10.176;2023-04-03T00:40:13;-0.60;99.90
7030;DHT22;3556;53.500;10.176;2023-04-03T00:42:43;-0.60;99.90
7030;DHT22;3556;53.500;10.176;2023-04-03T00:47:43;-0.70;99.90
7030;DHT22;3556;53.500;10.176;2023-04-03T00:50:09;-0.70;99.90
7030;DHT22;3556;53.500;10.176;2023-04-03T00:52:36;-0.70;99.90
7030;DHT22;3556;53.500;10.176;2023-04-03T00:55:06;-0.70;99.90
7030;DHT22;3556;53.500;10.176;2023-04-03T00:57:33;-0.70;99.90
7030;DHT22;3556;53.500;10.176;2023-04-03T01:00:06;-0.80;99.90
7030;DHT22;3556;53.500;10.176;2023-04-03T01:02:34;-0.80;99.90
7030;DHT22;3556;53.500;10.176;2023-04-03T01:05:00;-0.80;99.90
7030;DHT22;3556;53.500;10.176;2023-04-03T01:07:30;-0.90;99.90
7030;DHT22;3556;53.500;10.176;2023-04-03T01:09:58;-0.90;99.90
7030;DHT22;3556;53.500;10.176;2023-04-03T01:12:27;-0.90;99.90
7030;DHT22;3556;53.500;10.176;2023-04-03T01:14:55;-1.00;99.90
7030;DHT22;3556;53.500;10.176;2023-04-03T01:17:31;-1.00;99.90
7030;DHT22;3556;53.500;10.176;2023-04-03T01:22:57;-1.00;99.90
7030;DHT22;3556;53.500;10.176;2023-04-03T01:25:25;-1.00;99.90
7030;DHT22;3556;53.500;10.176;2023-04-03T01:27:51;-1.00;99.90
7030;DHT22;3556;53.500;10.176;2023-04-03T01:30:19;-1.00;99.90
7030;DHT22;3556;53.500;10.176;2023-04-03T01:32:45;-1.10;99.90
7030;DHT22;3556;53.500;10.176;2023-04-03T01:35:11;-1.10;99.90
7030;DHT22;3556;53.500;10.176;2023-04-03T01:37:37;-1.10;99.90
7030;DHT22;3556;53.500;10.176;2023-04-03T01:40:03;-1.10;99.90
7030;DHT22;3556;53.500;10.176;2023-04-03T01:42:29;-1.20;99.90
7030;DHT22;3556;53.500;10.176;2023-04-03T01:44:55;-1.10;99.90
7030;DHT22;3556;53.500;10.176;2023-04-03T01:47:21;-1.10;99.90
7030;DHT22;3556;53.500;10.176;2023-04-03T01:49:47;-1.10;99.90
7030;DHT22;3556;53.500;10.176;2023-04-03T01:52:13;-1.20;99.90
7030;DHT22;3556;53.500;10.176;2023-04-03T01:54:38;-1.20;99.90
7030;DHT22;3556;53.500;10.176;2023-04-03T01:57:04;-1.20;99.90
7030;DHT22;3556;53.500;10.176;2023-04-03T01:59:30;-1.10;99.90
7030;DHT22;3556;53.500;10.176;2023-04-03T02:01:56;-1.10;99.90
7030;DHT22;3556;53.500;10.176;2023-04-03T02:04:21;-1.10;99.90
7030;DHT22;3556;53.500;10.176;2023-04-03T02:06:47;-1.10;99.90
7030;DHT22;3556;53.500;10.176;2023-04-03T02:09:13;-1.00;99.90
7030;DHT22;3556;53.500;10.176;2023-04-03T02:11:38;-1.00;99.90
7030;DHT22;3556;53.500;10.176;2023-04-03T02:14:04;-1.00;99.90
7030;DHT22;3556;53.500;10.176;2023-04-03T02:16:29;-0.90;99.90
7030;DHT22;3556;53.500;10.176;2023-04-03T02:18:56;-0.90;99.90
7030;DHT22;3556;53.500;10.176;2023-04-03T02:21:21;-0.90;99.90
7030;DHT22;3556;53.500;10.176;2023-04-03T02:23:47;-0.90;99.90
7030;DHT22;3556;53.500;10.176;2023-04-03T02:26:15;-0.90;99.90
7030;DHT22;3556;53.500;10.176;2023-04-03T02:28:41;-0.90;99.90
7030;DHT22;3556;53.500;10.176;2023-04-03T02:31:07;-0.90;99.90
7030;DHT22;3556;53.500;10.176;2023-04-03T02:33:34;-0.90;99.90
7030;DHT22;3556;53.500;10.176;2023-04-03T02:36:01;-0.90;99.90
7030;DHT22;3556;53.500;10.176;2023-04-03T02:38:26;-0.90;99.90
7030;DHT22;3556;53.500;10.176;2023-04-03T02:40:52;-0.90;99.90
7030;DHT22;3556;53.500;10.176;2023-04-03T02:43:18;-0.90;99.90
7030;DHT22;3556;53.500;10.176;2023-04-03T02:45:44;-0.80;99.90
7030;DHT22;3556;53.500;10.176;2023-04-03T02:48:09;-0.80;99.90
7030;DHT22;3556;53.500;10.176;2023-04-03T02:50:35;-0.80;99.90
7030;DHT22;3556;53.500;10.176;2023-04-03T02:53:00;-0.80;99.90
7030;DHT22;3556;53.500;10.176;2023-04-03T02:55:26;-0.80;99.90
7030;DHT22;3556;53.500;10.176;2023-04-03T02:57:51;-0.80;99.90
7030;DHT22;3556;53.500;10.176;2023-04-03T03:00:17;-0.80;99.90
7030;DHT22;3556;53.500;10.176;2023-04-03T03:02:43;-0.80;99.90
7030;DHT22;3556;53.500;10.176;2023-04-03T03:05:09;-0.80;99.90
7030;DHT22;3556;53.500;10.176;2023-04-03T03:07:34;-0.80;99.90
7030;DHT22;3556;53.500;10.176;2023-04-03T03:10:00;-0.80;99.90
7030;DHT22;3556;53.500;10.176;2023-04-03T03:12:26;-0.80;99.90
7030;DHT22;3556;53.500;10.176;2023-04-03T03:14:51;-0.90;99.90
7030;DHT22;3556;53.500;10.176;2023-04-03T03:17:17;-0.90;99.90
7030;DHT22;3556;53.500;10.176;2023-04-03T03:19:43;-0.90;99.90
7030;DHT22;3556;53.500;10.176;2023-04-03T03:22:11;-0.90;99.90
7030;DHT22;3556;53.500;10.176;2023-04-03T03:24:36;-0.90;99.90
7030;DHT22;3556;53.500;10.176;2023-04-03T03:27:02;-0.90;99.90
7030;DHT22;3556;53.500;10.176;2023-04-03T03:29:27;-1.00;99.90
7030;DHT22;3556;53.500;10.176;2023-04-03T03:31:53;-1.00;99.90
7030;DHT22;3556;53.500;10.176;2023-04-03T03:34:18;-1.10;99.90
7030;DHT22;3556;53.500;10.176;2023-04-03T03:36:44;-1.10;99.90
7030;DHT22;3556;53.500;10.176;2023-04-03T03:39:10;-1.10;99.90
7030;DHT22;3556;53.500;10.176;2023-04-03T03:41:35;-1.20;99.90
7030;DHT22;3556;53.500;10.176;2023-04-03T03:44:01;-1.20;99.90
7030;DHT22;3556;53.500;10.176;2023-04-03T03:46:26;-1.20;99.90
7030;DHT22;3556;53.500;10.176;2023-04-03T03:48:52;-1.20;99.90
7030;DHT22;3556;53.500;10.176;2023-04-03T03:51:18;-1.20;99.90
7030;DHT22;3556;53.500;10.176;2023-04-03T03:53:43;-1.20;99.90
7030;DHT22;3556;53.500;10.176;2023-04-03T03:56:09;-1.20;99.90
7030;DHT22;3556;53.500;10.176;2023-04-03T03:58:35;-1.20;99.90
7030;DHT22;3556;53.500;10.176;2023-04-03T04:01:03;-1.20;99.90
7030;DHT22;3556;53.500;10.176;2023-04-03T04:03:29;-1.20;99.90
7030;DHT22;3556;53.500;10.176;2023-04-03T04:05:54;-1.30;99.90
7030;DHT22;3556;53.500;10.176;2023-04-03T04:08:20;-1.20;99.90
7030;DHT22;3556;53.500;10.176;2023-04-03T04:10:46;-1.20;99.90
7030;DHT22;3556;53.500;10.176;2023-04-03T04:13:11;-1.20;99.90
7030;DHT22;3556;53.500;10.176;2023-04-03T04:15:37;-1.30;99.90
7030;DHT22;3556;53.500;10.176;2023-04-03T04:18:03;-1.20;99.90
7030;DHT22;3556;53.500;10.176;2023-04-03T04:20:28;-1.30;99.90
7030;DHT22;3556;53.500;10.176;2023-04-03T04:22:54;-1.30;99.90
7030;DHT22;3556;53.500;10.176;2023-04-03T04:25:20;-1.30;99.90
7030;DHT22;3556;53.500;10.176;2023-04-03T04:27:45;-1.30;99.90
7030;DHT22;3556;53.500;10.176;2023-04-03T04:30:11;-1.30;99.90
7030;DHT22;3556;53.500;10.176;2023-04-03T04:32:37;-1.40;99.90
7030;DHT22;3556;53.500;10.176;2023-04-03T04:35:03;-1.40;99.90
7030;DHT22;3556;53.500;10.176;2023-04-03T04:37:30;-1.40;99.90
7030;DHT22;3556;53.500;10.176;2023-04-03T04:39:55;-1.40;99.90
7030;DHT22;3556;53.500;10.176;2023-04-03T04:42:21;-1.40;99.90
7030;DHT22;3556;53.500;10.176;2023-04-03T04:44:47;-1.40;99.90
7030;DHT22;3556;53.500;10.176;2023-04-03T04:47:12;-1.40;99.90
7030;DHT22;3556;53.500;10.176;2023-04-03T04:49:38;-1.50;99.90
7030;DHT22;3556;53.500;10.176;2023-04-03T04:52:03;-1.50;99.90
7030;DHT22;3556;53.500;10.176;2023-04-03T04:54:29;-1.50;99.90
7030;DHT22;3556;53.500;10.176;2023-04-03T04:56:55;-1.50;99.90
7030;DHT22;3556;53.500;10.176;2023-04-03T04:59:20;-1.60;99.90
7030;DHT22;3556;53.500;10.176;2023-04-03T05:01:46;-1.60;99.90
7030;DHT22;3556;53.500;10.176;2023-04-03T05:04:12;-1.60;99.90
7030;DHT22;3556;53.500;10.176;2023-04-03T05:06:38;-1.60;99.90
7030;DHT22;3556;53.500;10.176;2023-04-03T05:09:03;-1.60;99.90
7030;DHT22;3556;53.500;10.176;2023-04-03T05:11:29;-1.50;99.90
7030;DHT22;3556;53.500;10.176;2023-04-03T05:13:55;-1.50;99.90
7030;DHT22;3556;53.500;10.176;2023-04-03T05:16:21;-1.50;99.90
7030;DHT22;3556;53.500;10.176;2023-04-03T05:18:46;-1.50;99.90
7030;DHT22;3556;53.500;10.176;2023-04-03T05:21:12;-1.50;99.90
7030;DHT22;3556;53.500;10.176;2023-04-03T05:23:38;-1.50;99.90
7030;DHT22;3556;53.500;10.176;2023-04-03T05:26:03;-1.40;99.90
7030;DHT22;3556;53.500;10.176;2023-04-03T05:28:29;-1.40;99.90
7030;DHT22;3556;53.500;10.176;2023-04-03T05:30:58;-1.40;99.90
7030;DHT22;3556;53.500;10.176;2023-04-03T05:33:24;-1.40;99.90
7030;DHT22;3556;53.500;10.176;2023-04-03T05:35:52;-1.40;99.90
7030;DHT22;3556;53.500;10.176;2023-04-03T05:38:17;-1.40;99.90
7030;DHT22;3556;53.500;10.176;2023-04-03T05:40:43;-1.40;99.90
7030;DHT22;3556;53.500;10.176;2023-04-03T05:43:09;-1.30;99.90
7030;DHT22;3556;53.500;10.176;2023-04-03T05:45:35;-1.30;99.90
7030;DHT22;3556;53.500;10.176;2023-04-03T05:48:01;-1.30;99.90
7030;DHT22;3556;53.500;10.176;2023-04-03T05:50:27;-1.20;99.90
7030;DHT22;3556;53.500;10.176;2023-04-03T05:52:56;-1.10;99.90
7030;DHT22;3556;53.500;10.176;2023-04-03T05:55:23;-1.10;99.90
7030;DHT22;3556;53.500;10.176;2023-04-03T05:57:49;-1.00;99.90
7030;DHT22;3556;53.500;10.176;2023-04-03T06:00:15;-0.90;99.90
7030;DHT22;3556;53.500;10.176;2023-04-03T06:02:41;-0.80;99.90
7030;DHT22;3556;53.500;10.176;2023-04-03T06:05:08;-0.70;99.90
7030;DHT22;3556;53.500;10.176;2023-04-03T06:07:35;-0.60;99.90
7030;DHT22;3556;53.500;10.176;2023-04-03T06:10:01;-0.50;99.90
7030;DHT22;3556;53.500;10.176;2023-04-03T06:12:27;-0.30;99.90
7030;DHT22;3556;53.500;10.176;2023-04-03T06:14:54;-0.10;99.90
7030;DHT22;3556;53.500;10.176;2023-04-03T06:17:20;0.00;99.90
7030;DHT22;3556;53.500;10.176;2023-04-03T06:19:46;0.20;99.90
7030;DHT22;3556;53.500;10.176;2023-04-03T06:22:12;0.40;99.90
7030;DHT22;3556;53.500;10.176;2023-04-03T06:24:38;0.60;99.90
7030;DHT22;3556;53.500;10.176;2023-04-03T06:27:04;0.80;99.90
7030;DHT22;3556;53.500;10.176;2023-04-03T06:29:29;1.00;99.90
7030;DHT22;3556;53.500;10.176;2023-04-03T06:31:55;1.20;99.90
7030;DHT22;3556;53.500;10.176;2023-04-03T06:34:21;1.40;99.90
7030;DHT22;3556;53.500;10.176;2023-04-03T06:36:47;1.60;99.90
7030;DHT22;3556;53.500;10.176;2023-04-03T06:39:19;1.80;99.90
7030;DHT22;3556;53.500;10.176;2023-04-03T06:41:49;2.00;99.90
7030;DHT22;3556;53.500;10.176;2023-04-03T06:44:15;2.20;99.90
7030;DHT22;3556;53.500;10.176;2023-04-03T06:46:42;2.40;99.90
7030;DHT22;3556;53.500;10.176;2023-04-03T06:49:09;2.60;99.90
7030;DHT22;3556;53.500;10.176;2023-04-03T06:51:35;2.80;99.90
7030;DHT22;3556;53.500;10.176;2023-04-03T06:54:02;3.00;99.90
7030;DHT22;3556;53.500;10.176;2023-04-03T06:56:28;3.20;99.90
7030;DHT22;3556;53.500;10.176;2023-04-03T06:58:55;3.50;99.90
7030;DHT22;3556;53.500;10.176;2023-04-03T07:01:24;3.70;99.90
7030;DHT22;3556;53.500;10.176;2023-04-03T07:03:51;3.80;99.90
7030;DHT22;3556;53.500;10.176;2023-04-03T07:06:17;3.90;99.90
7030;DHT22;3556;53.500;10.176;2023-04-03T07:08:44;4.10;99.90
7030;DHT22;3556;53.500;10.176;2023-04-03T07:11:10;4.30;99.90
7030;DHT22;3556;53.500;10.176;2023-04-03T07:13:36;4.50;99.90
7030;DHT22;3556;53.500;10.176;2023-04-03T07:16:03;4.70;99.90
7030;DHT22;3556;53.500;10.176;2023-04-03T07:18:30;4.90;99.90
7030;DHT22;3556;53.500;10.176;2023-04-03T07:20:56;5.10;99.90
7030;DHT22;3556;53.500;10.176;2023-04-03T07:23:22;5.30;99.90
7030;DHT22;3556;53.500;10.176;2023-04-03T07:25:49;5.50;99.90
7030;DHT22;3556;53.500;10.176;2023-04-03T07:28:17;5.60;99.90
7030;DHT22;3556;53.500;10.176;2023-04-03T07:30:47;5.70;99.90
7030;DHT22;3556;53.500;10.176;2023-04-03T07:33:15;5.70;99.90
7030;DHT22;3556;53.500;10.176;2023-04-03T07:35:41;5.70;99.90
7030;DHT22;3556;53.500;10.176;2023-04-03T07:38:08;5.90;99.90
7030;DHT22;3556;53.500;10.176;2023-04-03T07:40:34;6.00;99.90
7030;DHT22;3556;53.500;10.176;2023-04-03T07:43:00;6.10;99.90
7030;DHT22;3556;53.500;10.176;2023-04-03T07:45:26;6.30;99.90
7030;DHT22;3556;53.500;10.176;2023-04-03T07:47:52;6.40;99.90
7030;DHT22;3556;53.500;10.176;2023-04-03T07:50:18;6.50;99.90
7030;DHT22;3556;53.500;10.176;2023-04-03T07:52:44;6.70;99.90
7030;DHT22;3556;53.500;10.176;2023-04-03T07:55:11;6.90;99.90
7030;DHT22;3556;53.500;10.176;2023-04-03T07:57:36;6.70;99.90
7030;DHT22;3556;53.500;10.176;2023-04-03T08:00:04;6.90;99.90
7030;DHT22;3556;53.500;10.176;2023-04-03T08:02:30;7.00;99.90
7030;DHT22;3556;53.500;10.176;2023-04-03T08:04:57;7.20;99.90
7030;DHT22;3556;53.500;10.176;2023-04-03T08:07:23;7.30;99.90
7030;DHT22;3556;53.500;10.176;2023-04-03T08:09:49;7.50;99.90
7030;DHT22;3556;53.500;10.176;2023-04-03T08:12:15;7.50;99.90
7030;DHT22;3556;53.500;10.176;2023-04-03T08:14:40;7.70;99.90
7030;DHT22;3556;53.500;10.176;2023-04-03T08:17:06;7.70;99.90
7030;DHT22;3556;53.500;10.176;2023-04-03T08:19:34;7.90;99.90
7030;DHT22;3556;53.500;10.176;2023-04-03T08:22:00;7.90;97.50
7030;DHT22;3556;53.500;10.176;2023-04-03T08:24:28;8.00;97.20
7030;DHT22;3556;53.500;10.176;2023-04-03T08:26:54;8.10;98.20
7030;DHT22;3556;53.500;10.176;2023-04-03T08:29:20;8.10;95.70
7030;DHT22;3556;53.500;10.176;2023-04-03T08:31:46;8.00;93.60
7030;DHT22;3556;53.500;10.176;2023-04-03T08:34:13;8.10;95.60
7030;DHT22;3556;53.500;10.176;2023-04-03T08:36:39;8.20;94.00
7030;DHT22;3556;53.500;10.176;2023-04-03T08:39:05;8.40;95.20
7030;DHT22;3556;53.500;10.176;2023-04-03T08:41:39;8.50;93.70
7030;DHT22;3556;53.500;10.176;2023-04-03T08:49:44;9.00;91.40
7030;DHT22;3556;53.500;10.176;2023-04-03T08:52:16;9.20;92.20
7030;DHT22;3556;53.500;10.176;2023-04-03T08:54:57;9.40;91.60
7030;DHT22;3556;53.500;10.176;2023-04-03T08:57:35;9.50;90.50
7030;DHT22;3556;53.500;10.176;2023-04-03T09:00:15;9.80;87.10
7030;DHT22;3556;53.500;10.176;2023-04-03T09:02:44;9.90;87.20
7030;DHT22;3556;53.500;10.176;2023-04-03T09:05:35;10.00;80.80
7030;DHT22;3556;53.500;10.176;2023-04-03T09:08:28;10.10;84.30
7030;DHT22;3556;53.500;10.176;2023-04-03T09:11:20;10.50;83.10
7030;DHT22;3556;53.500;10.176;2023-04-03T09:16:54;10.20;71.60
7030;DHT22;3556;53.500;10.176;2023-04-03T09:24:37;10.10;68.20
7030;DHT22;3556;53.500;10.176;2023-04-03T09:27:09;10.10;72.20
7030;DHT22;3556;53.500;10.176;2023-04-03T09:29:40;10.40;75.00
7030;DHT22;3556;53.500;10.176;2023-04-03T09:32:33;10.80;69.20
7030;DHT22;3556;53.500;10.176;2023-04-03T09:35:06;10.90;72.80
7030;DHT22;3556;53.500;10.176;2023-04-03T09:37:43;11.10;64.60
7030;DHT22;3556;53.500;10.176;2023-04-03T09:40:39;11.30;68.10
7030;DHT22;3556;53.500;10.176;2023-04-03T09:45:44;11.30;63.00
7030;DHT22;3556;53.500;10.176;2023-04-03T09:50:55;11.00;65.80
7030;DHT22;3556;53.500;10.176;2023-04-03T09:53:33;10.80;64.30
7030;DHT22;3556;53.500;10.176;2023-04-03T09:56:02;11.10;64.50
7030;DHT22;3556;53.500;10.176;2023-04-03T09:58:40;11.40;65.40
7030;DHT22;3556;53.500;10.176;2023-04-03T10:01:20;11.60;64.30
7030;DHT22;3556;53.500;10.176;2023-04-03T10:04:19;11.50;59.70
7030;DHT22;3556;53.500;10.176;2023-04-03T10:06:49;11.50;66.40
7030;DHT22;3556;53.500;10.176;2023-04-03T10:11:59;11.80;63.20
7030;DHT22;3556;53.500;10.176;2023-04-03T10:14:29;11.50;60.30
7030;DHT22;3556;53.500;10.176;2023-04-03T10:17:18;11.20;59.10
7030;DHT22;3556;53.500;10.176;2023-04-03T10:19:47;11.10;61.80
7030;DHT22;3556;53.500;10.176;2023-04-03T10:22:18;11.30;70.30
7030;DHT22;3556;53.500;10.176;2023-04-03T10:24:51;11.50;63.00
7030;DHT22;3556;53.500;10.176;2023-04-03T10:27:33;11.90;65.90
7030;DHT22;3556;53.500;10.176;2023-04-03T10:33:01;12.30;62.50
7030;DHT22;3556;53.500;10.176;2023-04-03T10:41:17;12.10;63.70
7030;DHT22;3556;53.500;10.176;2023-04-03T10:46:48;11.30;59.00
7030;DHT22;3556;53.500;10.176;2023-04-03T10:49:39;10.70;57.60
7030;DHT22;3556;53.500;10.176;2023-04-03T10:52:24;10.60;59.20
7030;DHT22;3556;53.500;10.176;2023-04-03T10:57:28;10.90;61.80
7030;DHT22;3556;53.500;10.176;2023-04-03T11:00:01;11.10;70.00
7030;DHT22;3556;53.500;10.176;2023-04-03T11:02:57;11.40;63.10
7030;DHT22;3556;53.500;10.176;2023-04-03T11:10:53;12.50;66.20
7030;DHT22;3556;53.500;10.176;2023-04-03T11:13:52;12.50;58.60
7030;DHT22;3556;53.500;10.176;2023-04-03T11:16:26;12.60;59.40
7030;DHT22;3556;53.500;10.176;2023-04-03T11:18:59;13.20;64.90
7030;DHT22;3556;53.500;10.176;2023-04-03T11:21:44;13.60;66.70
7030;DHT22;3556;53.500;10.176;2023-04-03T11:24:17;13.10;59.30
7030;DHT22;3556;53.500;10.176;2023-04-03T11:26:46;12.70;58.00
7030;DHT22;3556;53.500;10.176;2023-04-03T11:29:16;11.80;58.90
7030;DHT22;3556;53.500;10.176;2023-04-03T11:34:26;10.90;63.10
7030;DHT22;3556;53.500;10.176;2023-04-03T11:37:00;11.20;65.50
7030;DHT22;3556;53.500;10.176;2023-04-03T11:39:33;11.80;64.40
7030;DHT22;3556;53.500;10.176;2023-04-03T11:42:20;12.20;59.40
7030;DHT22;3556;53.500;10.176;2023-04-03T11:44:48;12.70;58.40
7030;DHT22;3556;53.500;10.176;2023-04-03T11:47:44;13.00;55.70
7030;DHT22;3556;53.500;10.176;2023-04-03T11:50:46;13.60;57.40
7030;DHT22;3556;53.500;10.176;2023-04-03T12:16:46;13.80;53.00
7030;DHT22;3556;53.500;10.176;2023-04-03T12:19:37;12.70;53.20
7030;DHT22;3556;53.500;10.176;2023-04-03T12:22:14;12.40;52.20
7030;DHT22;3556;53.500;10.176;2023-04-03T12:24:43;11.80;56.90
7030;DHT22;3556;53.500;10.176;2023-04-03T12:27:28;12.30;56.20
7030;DHT22;3556;53.500;10.176;2023-04-03T12:33:02;13.00;52.80
7030;DHT22;3556;53.500;10.176;2023-04-03T12:35:37;13.60;51.70
7030;DHT22;3556;53.500;10.176;2023-04-03T12:41:02;14.40;49.80
7030;DHT22;3556;53.500;10.176;2023-04-03T12:46:24;15.10;52.30
7030;DHT22;3556;53.500;10.176;2023-04-03T12:48:54;15.50;50.00
7030;DHT22;3556;53.500;10.176;2023-04-03T12:53:54;16.10;51.50
7030;DHT22;3556;53.500;10.176;2023-04-03T12:58:50;16.60;50.00
7030;DHT22;3556;53.500;10.176;2023-04-03T13:01:25;16.60;49.30
7030;DHT22;3556;53.500;10.176;2023-04-03T13:03:57;16.20;49.00
7030;DHT22;3556;53.500;10.176;2023-04-03T13:06:30;15.70;47.90
7030;DHT22;3556;53.500;10.176;2023-04-03T13:08:59;15.50;47.30
7030;DHT22;3556;53.500;10.176;2023-04-03T13:11:27;15.30;46.70
7030;DHT22;3556;53.500;10.176;2023-04-03T13:14:00;15.30;49.50
7030;DHT22;3556;53.500;10.176;2023-04-03T13:16:26;15.30;47.50
7030;DHT22;3556;53.500;10.176;2023-04-03T13:18:53;15.90;48.70
7030;DHT22;3556;53.500;10.176;2023-04-03T13:21:30;16.50;46.60
7030;DHT22;3556;53.500;10.176;2023-04-03T13:24:00;17.20;45.90
7030;DHT22;3556;53.500;10.176;2023-04-03T13:26:29;18.00;49.90
7030;DHT22;3556;53.500;10.176;2023-04-03T13:29:05;18.60;43.70
7030;DHT22;3556;53.500;10.176;2023-04-03T13:31:36;18.30;42.90
7030;DHT22;3556;53.500;10.176;2023-04-03T13:34:13;17.70;39.70
7030;DHT22;3556;53.500;10.176;2023-04-03T13:41:46;16.40;45.30
7030;DHT22;3556;53.500;10.176;2023-04-03T13:46:48;17.30;39.90
7030;DHT22;3556;53.500;10.176;2023-04-03T13:49:27;17.60;41.30
7030;DHT22;3556;53.500;10.176;2023-04-03T13:51:55;18.20;42.40
7030;DHT22;3556;53.500;10.176;2023-04-03T13:54:37;18.90;40.70
7030;DHT22;3556;53.500;10.176;2023-04-03T13:57:12;19.00;37.60
7030;DHT22;3556;53.500;10.176;2023-04-03T13:59:39;19.20;40.70
7030;DHT22;3556;53.500;10.176;2023-04-03T14:07:14;19.10;37.00
7030;DHT22;3556;53.500;10.176;2023-04-03T14:09:41;19.20;38.60
7030;DHT22;3556;53.500;10.176;2023-04-03T14:12:16;19.60;34.30
7030;DHT22;3556;53.500;10.176;2023-04-03T14:14:43;19.50;37.20
7030;DHT22;3556;53.500;10.176;2023-04-03T14:17:18;19.50;38.50
7030;DHT22;3556;53.500;10.176;2023-04-03T14:19:45;18.70;36.70
7030;DHT22;3556;53.500;10.176;2023-04-03T14:24:49;19.20;34.60
7030;DHT22;3556;53.500;10.176;2023-04-03T14:27:21;19.30;34.30
7030;DHT22;3556;53.500;10.176;2023-04-03T14:29:48;19.70;35.10
7030;DHT22;3556;53.500;10.176;2023-04-03T14:32:16;19.90;35.60
7030;DHT22;3556;53.500;10.176;2023-04-03T14:34:42;18.90;32.40
7030;DHT22;3556;53.500;10.176;2023-04-03T14:37:15;19.10;32.50
7030;DHT22;3556;53.500;10.176;2023-04-03T14:39:42;18.90;33.70
7030;DHT22;3556;53.500;10.176;2023-04-03T14:42:17;19.00;33.30
7030;DHT22;3556;53.500;10.176;2023-04-03T14:44:44;18.50;33.80
7030;DHT22;3556;53.500;10.176;2023-04-03T14:47:15;18.80;35.40
7030;DHT22;3556;53.500;10.176;2023-04-03T14:49:41;19.00;32.60
7030;DHT22;3556;53.500;10.176;2023-04-03T14:52:23;19.10;34.00
7030;DHT22;3556;53.500;10.176;2023-04-03T14:54:50;19.60;34.90
7030;DHT22;3556;53.500;10.176;2023-04-03T14:57:16;20.00;35.10
7030;DHT22;3556;53.500;10.176;2023-04-03T14:59:44;20.10;33.20
7030;DHT22;3556;53.500;10.176;2023-04-03T15:02:33;20.40;32.80
7030;DHT22;3556;53.500;10.176;2023-04-03T15:05:02;20.20;31.60
7030;DHT22;3556;53.500;10.176;2023-04-03T15:07:31;19.80;30.20
7030;DHT22;3556;53.500;10.176;2023-04-03T15:10:00;19.80;33.20
7030;DHT22;3556;53.500;10.176;2023-04-03T15:12:26;19.80;31.70
7030;DHT22;3556;53.500;10.176;2023-04-03T15:14:52;19.40;32.70
7030;DHT22;3556;53.500;10.176;2023-04-03T15:17:20;19.10;31.70
7030;DHT22;3556;53.500;10.176;2023-04-03T15:19:46;18.90;31.90
7030;DHT22;3556;53.500;10.176;2023-04-03T15:22:19;19.10;32.70
7030;DHT22;3556;53.500;10.176;2023-04-03T15:24:45;19.20;31.60
7030;DHT22;3556;53.500;10.176;2023-04-03T15:27:11;19.10;33.90
7030;DHT22;3556;53.500;10.176;2023-04-03T15:29:39;19.00;32.90
7030;DHT22;3556;53.500;10.176;2023-04-03T15:32:05;18.80;30.00
7030;DHT22;3556;53.500;10.176;2023-04-03T15:34:31;18.80;33.20
7030;DHT22;3556;53.500;10.176;2023-04-03T15:36:57;18.60;32.80
7030;DHT22;3556;53.500;10.176;2023-04-03T15:39:24;18.00;31.60
7030;DHT22;3556;53.500;10.176;2023-04-03T15:41:50;17.70;32.80
7030;DHT22;3556;53.500;10.176;2023-04-03T15:44:17;17.80;33.30
7030;DHT22;3556;53.500;10.176;2023-04-03T15:46:46;17.00;32.50
7030;DHT22;3556;53.500;10.176;2023-04-03T15:49:12;16.50;32.50
7030;DHT22;3556;53.500;10.176;2023-04-03T15:51:38;16.20;32.90
7030;DHT22;3556;53.500;10.176;2023-04-03T15:54:04;15.70;34.60
7030;DHT22;3556;53.500;10.176;2023-04-03T15:56:30;15.10;37.90
7030;DHT22;3556;53.500;10.176;2023-04-03T15:58:56;14.20;36.30
7030;DHT22;3556;53.500;10.176;2023-04-03T16:01:21;13.10;37.20
7030;DHT22;3556;53.500;10.176;2023-04-03T16:03:47;12.40;38.10
7030;DHT22;3556;53.500;10.176;2023-04-03T16:06:14;11.40;39.20
7030;DHT22;3556;53.500;10.176;2023-04-03T16:08:40;10.80;41.00
7030;DHT22;3556;53.500;10.176;2023-04-03T16:11:06;10.60;42.50
7030;DHT22;3556;53.500;10.176;2023-04-03T16:13:32;10.40;42.00
7030;DHT22;3556;53.500;10.176;2023-04-03T16:15:59;9.90;43.70
7030;DHT22;3556;53.500;10.176;2023-04-03T16:18:26;9.80;46.30
7030;DHT22;3556;53.500;10.176;2023-04-03T16:20:51;9.70;46.20
7030;DHT22;3556;53.500;10.176;2023-04-03T16:23:17;9.60;44.90
7030;DHT22;3556;53.500;10.176;2023-04-03T16:25:43;9.40;45.10
7030;DHT22;3556;53.500;10.176;2023-04-03T16:28:12;9.30;45.50
7030;DHT22;3556;53.500;10.176;2023-04-03T16:30:43;9.10;49.00
7030;DHT22;3556;53.500;10.176;2023-04-03T16:33:09;9.20;47.60
7030;DHT22;3556;53.500;10.176;2023-04-03T16:35:36;9.10;48.10
7030;DHT22;3556;53.500;10.176;2023-04-03T16:38:01;8.90;48.40
7030;DHT22;3556;53.500;10.176;2023-04-03T16:40:27;8.70;49.90
7030;DHT22;3556;53.500;10.176;2023-04-03T16:42:53;8.60;51.60
7030;DHT22;3556;53.500;10.176;2023-04-03T16:45:18;8.40;51.80
7030;DHT22;3556;53.500;10.176;2023-04-03T16:47:44;8.30;52.80
7030;DHT22;3556;53.500;10.176;2023-04-03T16:50:10;8.00;53.20
7030;DHT22;3556;53.500;10.176;2023-04-03T16:52:36;7.80;53.60
7030;DHT22;3556;53.500;10.176;2023-04-03T16:55:02;7.60;54.10
7030;DHT22;3556;53.500;10.176;2023-04-03T16:57:27;7.50;55.30
7030;DHT22;3556;53.500;10.176;2023-04-03T16:59:54;7.40;57.20
7030;DHT22;3556;53.500;10.176;2023-04-03T17:02:21;7.20;57.20
7030;DHT22;3556;53.500;10.176;2023-04-03T17:04:47;7.20;58.30
7030;DHT22;3556;53.500;10.176;2023-04-03T17:07:12;7.10;58.10
7030;DHT22;3556;53.500;10.176;2023-04-03T17:09:38;6.90;58.90
7030;DHT22;3556;53.500;10.176;2023-04-03T17:12:04;6.80;58.90
7030;DHT22;3556;53.500;10.176;2023-04-03T17:14:29;6.70;59.00
7030;DHT22;3556;53.500;10.176;2023-04-03T17:16:55;6.40;59.20
7030;DHT22;3556;53.500;10.176;2023-04-03T17:19:21;6.30;60.00
7030;DHT22;3556;53.500;10.176;2023-04-03T17:21:48;6.20;60.80
7030;DHT22;3556;53.500;10.176;2023-04-03T17:24:14;6.00;60.60
7030;DHT22;3556;53.500;10.176;2023-04-03T17:26:41;5.90;60.20
7030;DHT22;3556;53.500;10.176;2023-04-03T17:29:07;5.80;60.90
7030;DHT22;3556;53.500;10.176;2023-04-03T17:31:33;5.80;60.90
7030;DHT22;3556;53.500;10.176;2023-04-03T17:33:59;5.70;62.00
7030;DHT22;3556;53.500;10.176;2023-04-03T17:36:31;5.70;62.40
7030;DHT22;3556;53.500;10.176;2023-04-03T17:38:57;5.60;62.50
7030;DHT22;3556;53.500;10.176;2023-04-03T17:41:23;5.60;63.40